sensor_id;sensor_type;location;lat;lon;timestamp;P1;durP1;ratioP1;P2;durP2;ratioP2
42134;SDS011;28312;43.460;11.810;2022-12-29T00:03:19;13.68;;;9.45;;
42134;SDS011;28312;43.460;11.810;2022-12-29T00:07:23;10.30;;;6.57;;
42134;SDS011;28312;43.460;11.810;2022-12-29T00:11:27;8.57;;;4.72;;
42134;SDS011;28312;43.460;11.810;2022-12-29T00:15:31;8.32;;;5.38;;
42134;SDS011;28312;43.460;11.810;2022-12-29T00:19:40;9.48;;;6.07;;
42134;SDS011;28312;43.460;11.810;2022-12-29T00:24:03;8.40;;;6.65;;
42134;SDS011;28312;43.460;11.810;2022-12-29T00:28:25;10.90;;;7.78;;
42134;SDS011;28312;43.460;11.810;2022-12-29T00:32:48;8.70;;;5.53;;
42134;SDS011;28312;43.460;11.810;2022-12-29T00:37:11;9.77;;;6.70;;
42134;SDS011;28312;43.460;11.810;2022-12-29T00:41:15;8.65;;;5.97;;
42134;SDS011;28312;43.460;11.810;2022-12-29T00:45:39;10.45;;;6.55;;
42134;SDS011;28312;43.460;11.810;2022-12-29T00:49:44;10.05;;;6.57;;
42134;SDS011;28312;43.460;11.810;2022-12-29T00:53:48;10.48;;;7.82;;
42134;SDS011;28312;43.460;11.810;2022-12-29T00:57:54;10.70;;;6.77;;
42134;SDS011;28312;43.460;11.810;2022-12-29T01:01:57;8.80;;;5.90;;
42134;SDS011;28312;43.460;11.810;2022-12-29T01:06:03;11.77;;;7.95;;
42134;SDS011;28312;43.460;11.810;2022-12-29T01:10:08;10.18;;;6.47;;
42134;SDS011;28312;43.460;11.810;2022-12-29T01:14:12;8.85;;;6.40;;
42134;SDS011;28312;43.460;11.810;2022-12-29T01:18:15;9.65;;;6.05;;
42134;SDS011;28312;43.460;11.810;2022-12-29T01:22:19;7.25;;;5.45;;
42134;SDS011;28312;43.460;11.810;2022-12-29T01:26:22;7.07;;;5.15;;
42134;SDS011;28312;43.460;11.810;2022-12-29T01:30:27;28.67;;;8.13;;
42134;SDS011;28312;43.460;11.810;2022-12-29T01:34:31;30.75;;;7.50;;
42134;SDS011;28312;43.460;11.810;2022-12-29T01:38:36;9.27;;;5.88;;
42134;SDS011;28312;43.460;11.810;2022-12-29T01:42:40;7.25;;;5.82;;
42134;SDS011;28312;43.460;11.810;2022-12-29T01:46:45;8.45;;;5.60;;
42134;SDS011;28312;43.460;11.810;2022-12-29T01:50:50;7.82;;;5.70;;
42134;SDS011;28312;43.460;11.810;2022-12-29T01:54:55;34.45;;;7.10;;
42134;SDS011;28312;43.460;11.810;2022-12-29T01:59:01;39.28;;;11.50;;
42134;SDS011;28312;43.460;11.810;2022-12-29T02:03:06;13.13;;;6.55;;
42134;SDS011;28312;43.460;11.810;2022-12-29T02:07:12;18.33;;;9.27;;
42134;SDS011;28312;43.460;11.810;2022-12-29T02:11:19;49.15;;;14.15;;
42134;SDS011;28312;43.460;11.810;2022-12-29T02:15:26;59.33;;;12.73;;
42134;SDS011;28312;43.460;11.810;2022-12-29T02:36:46;21.52;;;9.43;;
42134;SDS011;28312;43.460;11.810;2022-12-29T02:40:54;19.98;;;8.93;;
42134;SDS011;28312;43.460;11.810;2022-12-29T02:45:05;18.88;;;12.77;;
42134;SDS011;28312;43.460;11.810;2022-12-29T02:49:13;19.73;;;9.38;;
42134;SDS011;28312;43.460;11.810;2022-12-29T02:53:19;12.55;;;5.90;;
42134;SDS011;28312;43.460;11.810;2022-12-29T02:57:45;27.40;;;9.07;;
42134;SDS011;28312;43.460;11.810;2022-12-29T03:06:28;15.00;;;6.75;;
42134;SDS011;28312;43.460;11.810;2022-12-29T03:10:37;15.60;;;8.93;;
42134;SDS011;28312;43.460;11.810;2022-12-29T03:14:50;10.73;;;6.93;;
42134;SDS011;28312;43.460;11.810;2022-12-29T03:23:22;21.83;;;8.55;;
42134;SDS011;28312;43.460;11.810;2022-12-29T03:27:29;10.80;;;6.32;;
42134;SDS011;28312;43.460;11.810;2022-12-29T03:31:35;9.52;;;6.43;;
42134;SDS011;28312;43.460;11.810;2022-12-29T03:35:41;9.30;;;5.13;;
42134;SDS011;28312;43.460;11.810;2022-12-29T03:39:46;13.38;;;6.40;;
42134;SDS011;28312;43.460;11.810;2022-12-29T03:43:50;24.08;;;7.38;;
42134;SDS011;28312;43.460;11.810;2022-12-29T03:47:54;23.23;;;5.55;;
42134;SDS011;28312;43.460;11.810;2022-12-29T03:51:58;5.38;;;3.75;;
42134;SDS011;28312;43.460;11.810;2022-12-29T03:56:03;19.15;;;7.18;;
42134;SDS011;28312;43.460;11.810;2022-12-29T04:00:08;7.68;;;5.93;;
42134;SDS011;28312;43.460;11.810;2022-12-29T04:04:20;11.82;;;7.45;;
42134;SDS011;28312;43.460;11.810;2022-12-29T04:08:24;10.15;;;7.45;;
42134;SDS011;28312;43.460;11.810;2022-12-29T04:12:28;7.75;;;6.07;;
42134;SDS011;28312;43.460;11.810;2022-12-29T04:16:32;6.50;;;5.20;;
42134;SDS011;28312;43.460;11.810;2022-12-29T04:20:40;8.75;;;6.82;;
42134;SDS011;28312;43.460;11.810;2022-12-29T04:25:03;8.98;;;6.00;;
42134;SDS011;28312;43.460;11.810;2022-12-29T04:29:08;8.20;;;5.75;;
42134;SDS011;28312;43.460;11.810;2022-12-29T04:33:38;7.30;;;5.78;;
42134;SDS011;28312;43.460;11.810;2022-12-29T04:37:48;8.60;;;5.47;;
42134;SDS011;28312;43.460;11.810;2022-12-29T04:41:51;10.00;;;5.97;;
42134;SDS011;28312;43.460;11.810;2022-12-29T04:45:56;8.00;;;5.97;;
42134;SDS011;28312;43.460;11.810;2022-12-29T04:50:06;8.15;;;6.18;;
42134;SDS011;28312;43.460;11.810;2022-12-29T04:54:27;8.65;;;6.15;;
42134;SDS011;28312;43.460;11.810;2022-12-29T04:58:41;9.05;;;6.78;;
42134;SDS011;28312;43.460;11.810;2022-12-29T05:02:44;9.07;;;5.68;;
42134;SDS011;28312;43.460;11.810;2022-12-29T05:06:49;7.57;;;5.72;;
42134;SDS011;28312;43.460;11.810;2022-12-29T05:10:53;7.75;;;5.50;;
42134;SDS011;28312;43.460;11.810;2022-12-29T05:15:00;10.70;;;7.35;;
42134;SDS011;28312;43.460;11.810;2022-12-29T05:19:05;10.75;;;8.23;;
42134;SDS011;28312;43.460;11.810;2022-12-29T05:23:09;11.90;;;6.82;;
42134;SDS011;28312;43.460;11.810;2022-12-29T05:27:13;9.98;;;6.95;;
42134;SDS011;28312;43.460;11.810;2022-12-29T05:31:35;15.20;;;11.82;;
42134;SDS011;28312;43.460;11.810;2022-12-29T05:35:40;10.45;;;7.32;;
42134;SDS011;28312;43.460;11.810;2022-12-29T05:39:44;6.45;;;4.97;;
42134;SDS011;28312;43.460;11.810;2022-12-29T05:43:48;9.25;;;7.78;;
42134;SDS011;28312;43.460;11.810;2022-12-29T05:48:14;9.13;;;6.05;;
42134;SDS011;28312;43.460;11.810;2022-12-29T05:52:40;6.35;;;4.13;;
42134;SDS011;28312;43.460;11.810;2022-12-29T05:56:45;11.77;;;9.77;;
42134;SDS011;28312;43.460;11.810;2022-12-29T06:00:49;9.35;;;5.30;;
42134;SDS011;28312;43.460;11.810;2022-12-29T06:04:54;9.38;;;6.65;;
42134;SDS011;28312;43.460;11.810;2022-12-29T06:08:58;9.65;;;5.65;;
42134;SDS011;28312;43.460;11.810;2022-12-29T06:13:02;10.27;;;7.32;;
42134;SDS011;28312;43.460;11.810;2022-12-29T06:17:11;8.27;;;6.32;;
42134;SDS011;28312;43.460;11.810;2022-12-29T06:21:16;5.28;;;3.38;;
42134;SDS011;28312;43.460;11.810;2022-12-29T06:25:20;9.75;;;5.95;;
42134;SDS011;28312;43.460;11.810;2022-12-29T06:29:24;6.95;;;3.92;;
42134;SDS011;28312;43.460;11.810;2022-12-29T06:33:28;7.80;;;4.50;;
42134;SDS011;28312;43.460;11.810;2022-12-29T06:37:32;6.00;;;3.97;;
42134;SDS011;28312;43.460;11.810;2022-12-29T06:41:36;7.07;;;4.13;;
42134;SDS011;28312;43.460;11.810;2022-12-29T06:46:04;9.85;;;5.55;;
42134;SDS011;28312;43.460;11.810;2022-12-29T06:50:08;9.15;;;6.22;;
42134;SDS011;28312;43.460;11.810;2022-12-29T06:54:13;9.07;;;7.00;;
42134;SDS011;28312;43.460;11.810;2022-12-29T06:58:16;8.38;;;6.00;;
42134;SDS011;28312;43.460;11.810;2022-12-29T07:02:20;11.05;;;7.22;;
42134;SDS011;28312;43.460;11.810;2022-12-29T07:06:24;10.20;;;7.45;;
42134;SDS011;28312;43.460;11.810;2022-12-29T07:10:27;5.85;;;3.67;;
42134;SDS011;28312;43.460;11.810;2022-12-29T07:14:31;4.93;;;3.25;;
42134;SDS011;28312;43.460;11.810;2022-12-29T07:18:43;7.18;;;4.55;;
42134;SDS011;28312;43.460;11.810;2022-12-29T07:22:47;5.20;;;3.60;;
42134;SDS011;28312;43.460;11.810;2022-12-29T07:26:52;9.65;;;7.22;;
42134;SDS011;28312;43.460;11.810;2022-12-29T07:30:57;16.20;;;11.88;;
42134;SDS011;28312;43.460;11.810;2022-12-29T07:35:02;6.53;;;4.43;;
42134;SDS011;28312;43.460;11.810;2022-12-29T07:39:06;4.82;;;3.00;;
42134;SDS011;28312;43.460;11.810;2022-12-29T07:43:10;7.95;;;5.72;;
42134;SDS011;28312;43.460;11.810;2022-12-29T07:47:20;7.40;;;4.13;;
42134;SDS011;28312;43.460;11.810;2022-12-29T07:51:24;4.25;;;2.90;;
42134;SDS011;28312;43.460;11.810;2022-12-29T07:55:28;4.85;;;3.60;;
42134;SDS011;28312;43.460;11.810;2022-12-29T07:59:32;6.60;;;3.55;;
42134;SDS011;28312;43.460;11.810;2022-12-29T08:03:35;5.55;;;3.85;;
42134;SDS011;28312;43.460;11.810;2022-12-29T08:07:39;4.68;;;3.10;;
42134;SDS011;28312;43.460;11.810;2022-12-29T08:11:42;8.73;;;6.65;;
42134;SDS011;28312;43.460;11.810;2022-12-29T08:15:46;5.65;;;3.20;;
42134;SDS011;28312;43.460;11.810;2022-12-29T08:19:50;5.10;;;3.55;;
42134;SDS011;28312;43.460;11.810;2022-12-29T08:23:53;11.35;;;4.90;;
42134;SDS011;28312;43.460;11.810;2022-12-29T08:27:57;6.78;;;5.25;;
42134;SDS011;28312;43.460;11.810;2022-12-29T08:32:01;7.40;;;4.10;;
42134;SDS011;28312;43.460;11.810;2022-12-29T08:36:05;4.50;;;2.95;;
42134;SDS011;28312;43.460;11.810;2022-12-29T08:40:10;4.65;;;2.72;;
42134;SDS011;28312;43.460;11.810;2022-12-29T08:44:14;5.75;;;4.28;;
42134;SDS011;28312;43.460;11.810;2022-12-29T08:48:17;6.80;;;4.75;;
42134;SDS011;28312;43.460;11.810;2022-12-29T08:52:22;12.27;;;9.43;;
42134;SDS011;28312;43.460;11.810;2022-12-29T08:56:25;6.25;;;4.22;;
42134;SDS011;28312;43.460;11.810;2022-12-29T09:00:32;4.85;;;3.20;;
42134;SDS011;28312;43.460;11.810;2022-12-29T09:04:36;10.45;;;6.07;;
42134;SDS011;28312;43.460;11.810;2022-12-29T09:08:40;6.20;;;3.70;;
42134;SDS011;28312;43.460;11.810;2022-12-29T09:12:43;10.38;;;5.10;;
42134;SDS011;28312;43.460;11.810;2022-12-29T09:16:47;9.65;;;6.60;;
42134;SDS011;28312;43.460;11.810;2022-12-29T09:21:10;6.00;;;4.10;;
42134;SDS011;28312;43.460;11.810;2022-12-29T09:25:14;16.55;;;12.18;;
42134;SDS011;28312;43.460;11.810;2022-12-29T09:29:17;10.38;;;7.50;;
42134;SDS011;28312;43.460;11.810;2022-12-29T09:33:21;16.08;;;9.52;;
42134;SDS011;28312;43.460;11.810;2022-12-29T09:37:25;12.60;;;8.38;;
42134;SDS011;28312;43.460;11.810;2022-12-29T09:42:12;6.18;;;4.38;;
42134;SDS011;28312;43.460;11.810;2022-12-29T09:50:24;7.30;;;4.30;;
42134;SDS011;28312;43.460;11.810;2022-12-29T09:58:45;5.60;;;3.83;;
42134;SDS011;28312;43.460;11.810;2022-12-29T10:03:05;6.75;;;4.38;;
42134;SDS011;28312;43.460;11.810;2022-12-29T10:15:45;5.65;;;3.95;;
42134;SDS011;28312;43.460;11.810;2022-12-29T10:19:58;7.80;;;4.72;;
42134;SDS011;28312;43.460;11.810;2022-12-29T10:24:03;5.85;;;3.60;;
42134;SDS011;28312;43.460;11.810;2022-12-29T10:28:19;4.78;;;3.53;;
42134;SDS011;28312;43.460;11.810;2022-12-29T10:32:35;7.40;;;4.68;;
42134;SDS011;28312;43.460;11.810;2022-12-29T10:36:44;6.38;;;3.47;;
42134;SDS011;28312;43.460;11.810;2022-12-29T10:45:00;5.60;;;4.47;;
42134;SDS011;28312;43.460;11.810;2022-12-29T10:49:06;4.15;;;3.17;;
42134;SDS011;28312;43.460;11.810;2022-12-29T10:53:12;6.63;;;4.63;;
42134;SDS011;28312;43.460;11.810;2022-12-29T11:01:22;3.85;;;2.95;;
42134;SDS011;28312;43.460;11.810;2022-12-29T11:09:49;6.15;;;4.25;;
42134;SDS011;28312;43.460;11.810;2022-12-29T11:14:02;7.07;;;3.45;;
42134;SDS011;28312;43.460;11.810;2022-12-29T11:18:16;3.70;;;3.03;;
42134;SDS011;28312;43.460;11.810;2022-12-29T11:22:21;4.82;;;2.95;;
42134;SDS011;28312;43.460;11.810;2022-12-29T11:26:26;4.57;;;3.00;;
42134;SDS011;28312;43.460;11.810;2022-12-29T11:30:36;4.10;;;3.17;;
42134;SDS011;28312;43.460;11.810;2022-12-29T11:34:41;3.97;;;2.90;;
42134;SDS011;28312;43.460;11.810;2022-12-29T11:38:52;6.30;;;3.40;;
42134;SDS011;28312;43.460;11.810;2022-12-29T11:42:58;5.65;;;3.75;;
42134;SDS011;28312;43.460;11.810;2022-12-29T11:47:12;4.32;;;3.20;;
42134;SDS011;28312;43.460;11.810;2022-12-29T11:51:23;3.08;;;2.20;;
42134;SDS011;28312;43.460;11.810;2022-12-29T11:55:27;3.85;;;2.88;;
42134;SDS011;28312;43.460;11.810;2022-12-29T12:03:46;3.42;;;2.45;;
42134;SDS011;28312;43.460;11.810;2022-12-29T12:08:35;3.88;;;2.95;;
42134;SDS011;28312;43.460;11.810;2022-12-29T12:12:37;5.40;;;2.90;;
42134;SDS011;28312;43.460;11.810;2022-12-29T12:16:46;4.70;;;2.92;;
42134;SDS011;28312;43.460;11.810;2022-12-29T12:20:54;3.65;;;2.45;;
42134;SDS011;28312;43.460;11.810;2022-12-29T12:25:11;4.70;;;3.15;;
42134;SDS011;28312;43.460;11.810;2022-12-29T12:29:18;4.17;;;2.90;;
42134;SDS011;28312;43.460;11.810;2022-12-29T12:33:31;3.97;;;3.15;;
42134;SDS011;28312;43.460;11.810;2022-12-29T12:54:40;2.63;;;2.00;;
42134;SDS011;28312;43.460;11.810;2022-12-29T13:07:21;5.10;;;2.38;;
42134;SDS011;28312;43.460;11.810;2022-12-29T13:20:20;4.65;;;2.97;;
42134;SDS011;28312;43.460;11.810;2022-12-29T13:28:59;4.10;;;2.60;;
42134;SDS011;28312;43.460;11.810;2022-12-29T13:37:26;6.38;;;2.28;;
42134;SDS011;28312;43.460;11.810;2022-12-29T13:41:33;3.25;;;2.30;;
42134;SDS011;28312;43.460;11.810;2022-12-29T13:45:38;3.78;;;2.42;;
42134;SDS011;28312;43.460;11.810;2022-12-29T13:49:43;3.92;;;2.70;;
42134;SDS011;28312;43.460;11.810;2022-12-29T14:06:26;4.88;;;2.10;;
42134;SDS011;28312;43.460;11.810;2022-12-29T14:10:37;3.67;;;1.80;;
42134;SDS011;28312;43.460;11.810;2022-12-29T14:14:41;2.53;;;1.42;;
42134;SDS011;28312;43.460;11.810;2022-12-29T14:18:45;4.13;;;1.73;;
42134;SDS011;28312;43.460;11.810;2022-12-29T14:22:58;1.90;;;1.25;;
42134;SDS011;28312;43.460;11.810;2022-12-29T14:35:40;4.38;;;1.45;;
42134;SDS011;28312;43.460;11.810;2022-12-29T14:39:45;4.82;;;1.58;;
42134;SDS011;28312;43.460;11.810;2022-12-29T14:43:56;2.60;;;1.35;;
42134;SDS011;28312;43.460;11.810;2022-12-29T14:48:00;2.38;;;1.38;;
42134;SDS011;28312;43.460;11.810;2022-12-29T14:56:17;1.90;;;0.80;;
42134;SDS011;28312;43.460;11.810;2022-12-29T15:00:27;1.80;;;0.97;;
42134;SDS011;28312;43.460;11.810;2022-12-29T15:04:33;4.70;;;1.70;;
42134;SDS011;28312;43.460;11.810;2022-12-29T15:08:50;3.17;;;1.55;;
42134;SDS011;28312;43.460;11.810;2022-12-29T15:16:59;1.70;;;1.13;;
42134;SDS011;28312;43.460;11.810;2022-12-29T15:21:05;4.50;;;1.30;;
42134;SDS011;28312;43.460;11.810;2022-12-29T15:25:13;1.63;;;1.05;;
42134;SDS011;28312;43.460;11.810;2022-12-29T15:29:38;3.10;;;1.20;;
42134;SDS011;28312;43.460;11.810;2022-12-29T15:33:46;1.80;;;1.10;;
42134;SDS011;28312;43.460;11.810;2022-12-29T15:37:50;2.85;;;1.75;;
42134;SDS011;28312;43.460;11.810;2022-12-29T15:41:55;3.72;;;1.80;;
42134;SDS011;28312;43.460;11.810;2022-12-29T15:46:02;5.07;;;1.75;;
42134;SDS011;28312;43.460;11.810;2022-12-29T15:50:29;4.40;;;1.88;;
42134;SDS011;28312;43.460;11.810;2022-12-29T15:54:31;3.40;;;1.63;;
42134;SDS011;28312;43.460;11.810;2022-12-29T15:58:42;2.83;;;1.45;;
42134;SDS011;28312;43.460;11.810;2022-12-29T16:02:52;4.82;;;2.10;;
42134;SDS011;28312;43.460;11.810;2022-12-29T16:07:00;5.90;;;2.38;;
42134;SDS011;28312;43.460;11.810;2022-12-29T16:11:16;8.05;;;1.88;;
42134;SDS011;28312;43.460;11.810;2022-12-29T16:15:21;2.17;;;1.45;;
42134;SDS011;28312;43.460;11.810;2022-12-29T16:19:33;4.43;;;2.72;;
42134;SDS011;28312;43.460;11.810;2022-12-29T16:23:38;6.57;;;3.78;;
42134;SDS011;28312;43.460;11.810;2022-12-29T16:27:42;4.20;;;2.50;;
42134;SDS011;28312;43.460;11.810;2022-12-29T16:35:54;2.75;;;2.15;;
42134;SDS011;28312;43.460;11.810;2022-12-29T16:44:24;5.32;;;3.10;;
42134;SDS011;28312;43.460;11.810;2022-12-29T16:48:36;6.90;;;3.50;;
42134;SDS011;28312;43.460;11.810;2022-12-29T16:52:49;4.07;;;2.10;;
42134;SDS011;28312;43.460;11.810;2022-12-29T16:56:52;4.28;;;2.03;;
42134;SDS011;28312;43.460;11.810;2022-12-29T17:00:56;2.63;;;1.52;;
42134;SDS011;28312;43.460;11.810;2022-12-29T17:05:04;3.42;;;1.10;;
42134;SDS011;28312;43.460;11.810;2022-12-29T17:09:20;2.20;;;1.40;;
42134;SDS011;28312;43.460;11.810;2022-12-29T17:17:30;5.53;;;1.80;;
42134;SDS011;28312;43.460;11.810;2022-12-29T17:21:35;2.58;;;1.30;;
42134;SDS011;28312;43.460;11.810;2022-12-29T17:25:38;3.28;;;1.80;;
42134;SDS011;28312;43.460;11.810;2022-12-29T17:29:42;3.55;;;1.60;;
42134;SDS011;28312;43.460;11.810;2022-12-29T17:33:45;4.10;;;1.92;;
42134;SDS011;28312;43.460;11.810;2022-12-29T17:37:50;5.40;;;2.60;;
42134;SDS011;28312;43.460;11.810;2022-12-29T17:41:54;8.52;;;3.28;;
42134;SDS011;28312;43.460;11.810;2022-12-29T17:45:58;3.92;;;2.20;;
42134;SDS011;28312;43.460;11.810;2022-12-29T17:50:02;4.32;;;2.38;;
42134;SDS011;28312;43.460;11.810;2022-12-29T17:54:08;8.00;;;3.95;;
42134;SDS011;28312;43.460;11.810;2022-12-29T18:02:26;6.18;;;2.78;;
42134;SDS011;28312;43.460;11.810;2022-12-29T18:06:31;8.18;;;5.25;;
42134;SDS011;28312;43.460;11.810;2022-12-29T18:10:35;10.55;;;4.82;;
42134;SDS011;28312;43.460;11.810;2022-12-29T18:14:39;4.25;;;3.00;;
42134;SDS011;28312;43.460;11.810;2022-12-29T18:18:42;12.82;;;5.00;;
42134;SDS011;28312;43.460;11.810;2022-12-29T18:22:47;3.35;;;2.17;;
42134;SDS011;28312;43.460;11.810;2022-12-29T18:26:51;3.83;;;2.33;;
42134;SDS011;28312;43.460;11.810;2022-12-29T18:30:56;7.05;;;4.72;;
42134;SDS011;28312;43.460;11.810;2022-12-29T18:35:00;4.53;;;3.42;;
42134;SDS011;28312;43.460;11.810;2022-12-29T18:39:04;7.20;;;4.85;;
42134;SDS011;28312;43.460;11.810;2022-12-29T18:43:14;5.43;;;3.70;;
42134;SDS011;28312;43.460;11.810;2022-12-29T18:47:19;6.13;;;4.22;;
42134;SDS011;28312;43.460;11.810;2022-12-29T18:51:24;11.55;;;5.68;;
42134;SDS011;28312;43.460;11.810;2022-12-29T18:55:28;5.47;;;4.35;;
42134;SDS011;28312;43.460;11.810;2022-12-29T18:59:32;6.50;;;3.70;;
42134;SDS011;28312;43.460;11.810;2022-12-29T19:03:35;20.98;;;10.80;;
42134;SDS011;28312;43.460;11.810;2022-12-29T19:07:41;12.73;;;9.45;;
42134;SDS011;28312;43.460;11.810;2022-12-29T19:11:44;4.47;;;3.28;;
42134;SDS011;28312;43.460;11.810;2022-12-29T19:15:48;8.35;;;5.00;;
42134;SDS011;28312;43.460;11.810;2022-12-29T19:19:51;4.57;;;2.65;;
42134;SDS011;28312;43.460;11.810;2022-12-29T19:23:55;5.90;;;3.33;;
42134;SDS011;28312;43.460;11.810;2022-12-29T19:27:58;5.72;;;2.97;;
42134;SDS011;28312;43.460;11.810;2022-12-29T19:32:02;9.13;;;6.07;;
42134;SDS011;28312;43.460;11.810;2022-12-29T19:36:09;12.98;;;11.55;;
42134;SDS011;28312;43.460;11.810;2022-12-29T19:40:14;12.65;;;9.05;;
42134;SDS011;28312;43.460;11.810;2022-12-29T19:44:18;7.88;;;4.50;;
42134;SDS011;28312;43.460;11.810;2022-12-29T19:48:21;5.60;;;4.35;;
42134;SDS011;28312;43.460;11.810;2022-12-29T19:52:25;3.58;;;2.25;;
42134;SDS011;28312;43.460;11.810;2022-12-29T19:56:29;6.22;;;4.40;;
42134;SDS011;28312;43.460;11.810;2022-12-29T20:00:33;5.07;;;2.65;;
42134;SDS011;28312;43.460;11.810;2022-12-29T20:04:36;4.35;;;2.83;;
42134;SDS011;28312;43.460;11.810;2022-12-29T20:08:42;4.40;;;2.20;;
42134;SDS011;28312;43.460;11.810;2022-12-29T20:12:45;3.67;;;3.00;;
42134;SDS011;28312;43.460;11.810;2022-12-29T20:16:49;3.50;;;2.67;;
42134;SDS011;28312;43.460;11.810;2022-12-29T20:21:13;5.05;;;2.97;;
42134;SDS011;28312;43.460;11.810;2022-12-29T20:25:17;3.92;;;2.60;;
42134;SDS011;28312;43.460;11.810;2022-12-29T20:29:42;5.07;;;2.90;;
42134;SDS011;28312;43.460;11.810;2022-12-29T20:33:47;5.47;;;3.40;;
42134;SDS011;28312;43.460;11.810;2022-12-29T20:37:51;4.72;;;2.53;;
42134;SDS011;28312;43.460;11.810;2022-12-29T20:41:54;6.68;;;4.65;;
42134;SDS011;28312;43.460;11.810;2022-12-29T20:45:58;7.93;;;3.65;;
42134;SDS011;28312;43.460;11.810;2022-12-29T20:50:02;5.45;;;4.53;;
42134;SDS011;28312;43.460;11.810;2022-12-29T20:54:05;7.65;;;5.80;;
42134;SDS011;28312;43.460;11.810;2022-12-29T20:58:09;4.70;;;3.60;;
42134;SDS011;28312;43.460;11.810;2022-12-29T21:02:25;6.60;;;3.25;;
42134;SDS011;28312;43.460;11.810;2022-12-29T21:06:28;4.20;;;2.63;;
42134;SDS011;28312;43.460;11.810;2022-12-29T21:10:34;3.45;;;2.10;;
42134;SDS011;28312;43.460;11.810;2022-12-29T21:14:38;4.77;;;3.63;;
42134;SDS011;28312;43.460;11.810;2022-12-29T21:18:48;4.15;;;3.10;;
42134;SDS011;28312;43.460;11.810;2022-12-29T21:22:51;3.50;;;2.72;;
42134;SDS011;28312;43.460;11.810;2022-12-29T21:26:55;6.13;;;3.03;;
42134;SDS011;28312;43.460;11.810;2022-12-29T21:31:05;3.80;;;2.40;;
42134;SDS011;28312;43.460;11.810;2022-12-29T21:35:09;4.28;;;3.38;;
42134;SDS011;28312;43.460;11.810;2022-12-29T21:39:14;4.60;;;3.05;;
42134;SDS011;28312;43.460;11.810;2022-12-29T21:43:17;6.80;;;4.65;;
42134;SDS011;28312;43.460;11.810;2022-12-29T21:47:21;3.53;;;2.97;;
42134;SDS011;28312;43.460;11.810;2022-12-29T21:51:25;2.45;;;1.60;;
42134;SDS011;28312;43.460;11.810;2022-12-29T21:55:47;4.75;;;3.30;;
42134;SDS011;28312;43.460;11.810;2022-12-29T21:59:55;3.38;;;2.40;;
42134;SDS011;28312;43.460;11.810;2022-12-29T22:04:19;8.52;;;7.35;;
42134;SDS011;28312;43.460;11.810;2022-12-29T22:08:41;6.60;;;4.70;;
42134;SDS011;28312;43.460;11.810;2022-12-29T22:13:03;9.48;;;6.32;;
42134;SDS011;28312;43.460;11.810;2022-12-29T22:17:07;5.78;;;4.45;;
42134;SDS011;28312;43.460;11.810;2022-12-29T22:21:15;4.78;;;3.83;;
42134;SDS011;28312;43.460;11.810;2022-12-29T22:25:19;2.70;;;2.00;;
42134;SDS011;28312;43.460;11.810;2022-12-29T22:29:23;5.20;;;3.15;;
42134;SDS011;28312;43.460;11.810;2022-12-29T22:33:27;5.82;;;4.05;;
42134;SDS011;28312;43.460;11.810;2022-12-29T22:37:31;3.92;;;2.65;;
42134;SDS011;28312;43.460;11.810;2022-12-29T22:41:35;4.78;;;3.45;;
42134;SDS011;28312;43.460;11.810;2022-12-29T22:45:39;5.03;;;2.78;;
42134;SDS011;28312;43.460;11.810;2022-12-29T22:49:43;7.22;;;4.00;;
42134;SDS011;28312;43.460;11.810;2022-12-29T22:53:47;4.07;;;3.08;;
42134;SDS011;28312;43.460;11.810;2022-12-29T22:57:51;3.55;;;2.92;;
42134;SDS011;28312;43.460;11.810;2022-12-29T23:01:55;8.00;;;6.53;;
42134;SDS011;28312;43.460;11.810;2022-12-29T23:05:59;9.73;;;6.30;;
42134;SDS011;28312;43.460;11.810;2022-12-29T23:10:03;6.13;;;3.53;;
42134;SDS011;28312;43.460;11.810;2022-12-29T23:14:07;5.80;;;4.20;;
42134;SDS011;28312;43.460;11.810;2022-12-29T23:18:10;7.40;;;4.50;;
42134;SDS011;28312;43.460;11.810;2022-12-29T23:22:14;4.45;;;3.45;;
42134;SDS011;28312;43.460;11.810;2022-12-29T23:26:19;3.60;;;3.05;;
42134;SDS011;28312;43.460;11.810;2022-12-29T23:30:23;3.60;;;2.80;;
42134;SDS011;28312;43.460;11.810;2022-12-29T23:34:26;4.22;;;2.53;;
42134;SDS011;28312;43.460;11.810;2022-12-29T23:38:30;4.32;;;2.22;;
42134;SDS011;28312;43.460;11.810;2022-12-29T23:42:33;4.30;;;2.35;;
42134;SDS011;28312;43.460;11.810;2022-12-29T23:46:37;3.08;;;1.92;;
42134;SDS011;28312;43.460;11.810;2022-12-29T23:50:42;4.03;;;3.15;;
42134;SDS011;28312;43.460;11.810;2022-12-29T23:54:46;3.88;;;2.95;;
42134;SDS011;28312;43.460;11.810;2022-12-29T23:58:50;4.40;;;2.72;;
